Terminal Aerodrome Forecast
Issued by NWS

Home | Current Version | Previous Version | Text Only | Print | Product List | Glossary On
Versions: 1 2 3 4 5 6 7 8 9 10 11 12 13 14 15 16 17 18 19
000
FTUS43 KICT 011300 AAA
TAFCNU
TAF AMD
KCNU 011325Z 0113/0212 00000KT 1/4SM FG VV001
     FM011400 00000KT 3SM BR SCT005 SCT080
     FM011500 00000KT P6SM SCT080
     FM011700 17004KT P6SM SCT080=

USA.gov is the U.S. government's official web portal to all federal, state and local government web resources and services.